Time;durP1;ratioP1;P1;durP2;ratioP2;P2;SDS_P1;SDS_P2;PMS_P1;PMS_P2;Temp;Humidity;BMP_temperature;BMP_pressure;BME280_temperature;BME280_humidity;BME280_pressure;Samples;Min_cycle;Max_cycle;Signal;HPM_P1;HPM_P2
2023/06/16 00:01:23;;;;;;;;;;;;;;;17.92;55.88;101781.19;5085078;28;1937;-77
2023/06/16 00:03:52;;;;;;;;;;;;;;;17.93;55.86;101777.59;5075797;28;1435;-76
2023/06/16 00:06:19;;;;;;;;;;;;;;;17.90;56.35;101775.28;5084142;28;1698;-79
2023/06/16 00:08:45;;;;;;;;;;;;;;;17.89;56.67;101771.03;5092335;28;1163;-76
2023/06/16 00:11:14;;;;;;;;;;;;;;;17.87;56.23;101778.19;5084754;28;1318;-77
2023/06/16 00:13:40;;;;;;;;;;;;;;;17.81;56.36;101768.31;5079884;28;1610;-77
2023/06/16 00:16:05;;;;;;;;;;;;;;;17.77;56.69;101766.94;5090310;28;1179;-76
2023/06/16 00:18:31;;;;;;;;;;;;;;;17.74;56.90;101777.75;5083384;28;1758;-77
2023/06/16 00:20:57;;;;;;;;;;;;;;;17.70;57.01;101778.97;5072137;28;1890;-77
2023/06/16 00:23:23;;;;;;;;;;;;;;;17.66;57.05;101775.00;5083080;28;1487;-76
2023/06/16 00:25:48;;;;;;;;;;;;;;;17.63;57.21;101777.94;5088147;28;1294;-76
2023/06/16 00:28:13;;;;;;;;;;;;;;;17.60;57.67;101775.59;5084110;28;1360;-77
2023/06/16 00:30:39;;;;;;;;;;;;;;;17.54;57.27;101777.00;5082639;28;1518;-77
2023/06/16 00:33:05;;;;;;;;;;;;;;;17.50;57.71;101776.50;5074371;28;1888;-75
2023/06/16 00:35:30;;;;;;;;;;;;;;;17.45;57.51;101776.09;5079739;28;1393;-77
2023/06/16 00:37:56;;;;;;;;;;;;;;;17.42;57.93;101783.44;5076249;28;1462;-76
2023/06/16 00:40:21;;;;;;;;;;;;;;;17.38;57.82;101772.41;5073824;28;1889;-78
2023/06/16 00:42:46;;;;;;;;;;;;;;;17.33;57.98;101774.66;5084004;28;1398;-77
2023/06/16 00:45:11;;;;;;;;;;;;;;;17.31;57.92;101771.34;5080092;28;1402;-77
2023/06/16 00:47:36;;;;;;;;;;;;;;;17.26;58.27;101773.56;5081472;28;1584;-77
2023/06/16 00:50:02;;;;;;;;;;;;;;;17.24;58.37;101775.50;5093877;28;1321;-77
2023/06/16 00:52:30;;;;;;;;;;;;;;;17.19;58.12;101772.50;5078281;28;1610;-75
2023/06/16 00:54:56;;;;;;;;;;;;;;;17.16;58.26;101767.56;5082975;28;1390;-75
2023/06/16 00:57:22;;;;;;;;;;;;;;;17.14;58.04;101769.47;5081679;28;1920;-75
2023/06/16 00:59:47;;;;;;;;;;;;;;;17.10;58.45;101770.75;5083523;28;1897;-75
2023/06/16 01:02:13;;;;;;;;;;;;;;;17.08;58.13;101767.44;5072089;28;1380;-75
2023/06/16 01:04:38;;;;;;;;;;;;;;;17.06;58.30;101766.78;5070934;28;1363;-75
2023/06/16 01:07:12;;;;;;;;;;;;;;;17.04;58.30;101766.09;5077066;28;2044;-75
2023/06/16 01:09:38;;;;;;;;;;;;;;;16.99;58.56;101759.50;5078464;28;1378;-75
2023/06/16 01:12:09;;;;;;;;;;;;;;;16.96;58.63;101761.56;5090778;28;1060;-76
2023/06/16 01:14:57;;;;;;;;;;;;;;;16.92;58.64;101761.03;5083524;28;1543;-75
2023/06/16 01:17:23;;;;;;;;;;;;;;;16.89;59.08;101765.72;5076980;28;1536;-75
2023/06/16 01:19:53;;;;;;;;;;;;;;;16.86;58.79;101761.63;5079422;28;1902;-75
2023/06/16 01:22:45;;;;;;;;;;;;;;;16.83;59.29;101756.66;5084442;28;1227;-75
2023/06/16 01:25:14;;;;;;;;;;;;;;;16.82;59.46;101760.25;5070937;28;1541;-75
2023/06/16 01:27:47;;;;;;;;;;;;;;;16.81;59.11;101761.22;5085659;28;1440;-76
2023/06/16 01:30:13;;;;;;;;;;;;;;;16.77;59.78;101762.47;5089710;28;1255;-76
2023/06/16 01:32:38;;;;;;;;;;;;;;;16.72;59.76;101755.03;5075274;28;1348;-76
2023/06/16 01:35:04;;;;;;;;;;;;;;;16.69;59.53;101757.91;5079779;28;1557;-77
2023/06/16 01:37:30;;;;;;;;;;;;;;;16.64;59.66;101759.31;5087155;28;1404;-76
2023/06/16 01:39:55;;;;;;;;;;;;;;;16.62;60.04;101763.84;5070061;28;1989;-77
2023/06/16 01:42:22;;;;;;;;;;;;;;;16.60;59.97;101760.53;5086372;28;1834;-76
2023/06/16 01:44:48;;;;;;;;;;;;;;;16.57;59.81;101758.19;5083745;28;1417;-76
2023/06/16 01:47:13;;;;;;;;;;;;;;;16.56;60.45;101767.03;5083104;28;1705;-76
2023/06/16 01:49:39;;;;;;;;;;;;;;;16.53;60.27;101760.28;5079909;28;1456;-77
2023/06/16 01:52:05;;;;;;;;;;;;;;;16.51;60.34;101761.38;5077641;28;1293;-76
2023/06/16 01:54:31;;;;;;;;;;;;;;;16.48;59.84;101764.28;5079242;28;1376;-76
2023/06/16 01:56:57;;;;;;;;;;;;;;;16.44;60.32;101767.19;5080906;28;1418;-77
2023/06/16 01:59:22;;;;;;;;;;;;;;;16.38;60.50;101757.28;5079399;28;1403;-76
2023/06/16 02:01:49;;;;;;;;;;;;;;;16.32;60.72;101765.69;5083949;28;1986;-76
2023/06/16 02:04:16;;;;;;;;;;;;;;;16.30;60.71;101758.94;5093850;28;1603;-76
2023/06/16 02:06:45;;;;;;;;;;;;;;;16.28;60.40;101766.09;5087517;28;1302;-76
2023/06/16 02:09:12;;;;;;;;;;;;;;;16.24;60.80;101762.94;5079880;28;1484;-76
2023/06/16 02:11:37;;;;;;;;;;;;;;;16.22;60.65;101757.00;5079239;28;1466;-77
2023/06/16 02:14:03;;;;;;;;;;;;;;;16.20;60.96;101753.72;5093334;28;1374;-76
2023/06/16 02:16:29;;;;;;;;;;;;;;;16.17;60.54;101764.44;5095353;28;1718;-76
2023/06/16 02:18:55;;;;;;;;;;;;;;;16.13;60.65;101763.09;5083929;28;1382;-76
2023/06/16 02:21:21;;;;;;;;;;;;;;;16.13;60.41;101763.09;5087996;28;1898;-77
2023/06/16 02:23:46;;;;;;;;;;;;;;;16.10;60.59;101766.78;5088507;28;1206;-77
2023/06/16 02:26:11;;;;;;;;;;;;;;;16.08;60.28;101760.06;5082990;28;1337;-77
2023/06/16 02:28:36;;;;;;;;;;;;;;;16.06;60.15;101756.78;5082025;28;1400;-77
2023/06/16 02:31:02;;;;;;;;;;;;;;;16.06;60.76;101762.00;5086294;28;1271;-76
2023/06/16 02:33:27;;;;;;;;;;;;;;;16.04;60.42;101758.69;5092925;28;1547;-77
2023/06/16 02:35:52;;;;;;;;;;;;;;;15.99;60.46;101760.88;5096887;28;1106;-76
2023/06/16 02:38:17;;;;;;;;;;;;;;;16.00;60.67;101757.28;5092083;28;1365;-76
2023/06/16 02:40:43;;;;;;;;;;;;;;;15.95;61.06;101759.53;5103115;28;1901;-78
2023/06/16 02:43:08;;;;;;;;;;;;;;;15.92;60.90;101761.44;5088418;28;1513;-77
2023/06/16 02:45:33;;;;;;;;;;;;;;;15.89;60.90;101756.50;5084481;28;1562;-76
2023/06/16 02:47:58;;;;;;;;;;;;;;;15.87;61.09;101758.38;5073945;28;2009;-76
2023/06/16 02:50:23;;;;;;;;;;;;;;;15.85;61.08;101760.31;5087589;28;1718;-76
2023/06/16 02:52:49;;;;;;;;;;;;;;;15.82;61.00;101765.81;5090299;28;1724;-75
2023/06/16 02:55:15;;;;;;;;;;;;;;;15.76;61.54;101755.91;5096086;28;1333;-76
2023/06/16 02:57:40;;;;;;;;;;;;;;;15.73;61.50;101756.19;5086336;28;1628;-76
2023/06/16 03:00:10;;;;;;;;;;;;;;;15.69;61.26;101757.41;5096700;28;1960;-76
2023/06/16 03:02:36;;;;;;;;;;;;;;;15.67;61.22;101754.13;5076350;28;1653;-76
2023/06/16 03:05:04;;;;;;;;;;;;;;;15.68;61.77;101754.94;5090615;28;1608;-76
2023/06/16 03:07:31;;;;;;;;;;;;;;;15.64;61.44;101751.75;5085307;28;1497;-78
2023/06/16 03:09:56;;;;;;;;;;;;;;;15.64;61.28;101760.44;5090310;28;1370;-76
2023/06/16 03:12:22;;;;;;;;;;;;;;;15.63;61.24;101760.56;5090263;28;1373;-76
2023/06/16 03:14:47;;;;;;;;;;;;;;;15.62;61.33;101758.91;5093306;28;1206;-76
2023/06/16 03:17:13;;;;;;;;;;;;;;;15.60;61.26;101758.22;5088029;28;1412;-76
2023/06/16 03:19:38;;;;;;;;;;;;;;;15.59;61.50;101753.91;5087013;28;1380;-76
2023/06/16 03:22:04;;;;;;;;;;;;;;;15.57;61.42;101755.84;5079996;28;1995;-76
2023/06/16 03:24:33;;;;;;;;;;;;;;;15.54;61.22;101756.09;5082652;28;1539;-76
2023/06/16 03:26:58;;;;;;;;;;;;;;;15.52;61.05;101758.03;5082078;28;1546;-76
2023/06/16 03:29:23;;;;;;;;;;;;;;;15.48;61.17;101762.69;5082677;28;1509;-76
2023/06/16 03:31:49;;;;;;;;;;;;;;;15.47;61.59;101755.81;5085196;28;1293;-76
2023/06/16 03:34:14;;;;;;;;;;;;;;;15.45;61.51;101762.16;5088305;28;1711;-76
2023/06/16 03:36:40;;;;;;;;;;;;;;;15.41;61.57;101756.38;5085919;28;1278;-75
2023/06/16 03:39:05;;;;;;;;;;;;;;;15.41;61.28;101757.19;5081463;28;1447;-77
2023/06/16 03:41:31;;;;;;;;;;;;;;;15.39;61.41;101759.13;5083589;28;1947;-76
2023/06/16 03:43:56;;;;;;;;;;;;;;;15.38;61.70;101761.88;5079389;28;1327;-76
2023/06/16 03:46:21;;;;;;;;;;;;;;;15.35;61.88;101762.94;5081291;28;1454;-76
2023/06/16 03:48:46;;;;;;;;;;;;;;;15.35;61.79;101762.94;5074464;28;1438;-76
2023/06/16 03:51:12;;;;;;;;;;;;;;;15.35;61.82;101762.13;5087014;28;1306;-78
2023/06/16 03:53:37;;;;;;;;;;;;;;;15.33;61.81;101759.66;5084945;28;1337;-76
2023/06/16 03:56:02;;;;;;;;;;;;;;;15.36;61.86;101758.53;5087040;28;1403;-76
2023/06/16 03:58:28;;;;;;;;;;;;;;;15.36;61.89;101759.38;5080501;28;1620;-76
2023/06/16 04:00:54;;;;;;;;;;;;;;;15.34;61.93;101766.53;5082164;28;1980;-76
2023/06/16 04:03:19;;;;;;;;;;;;;;;15.34;62.13;101761.31;5093583;28;1265;-76
2023/06/16 04:05:44;;;;;;;;;;;;;;;15.33;62.18;101758.81;5083115;28;1537;-76
2023/06/16 04:08:09;;;;;;;;;;;;;;;15.33;62.14;101751.81;5092663;28;1483;-76
2023/06/16 04:10:35;;;;;;;;;;;;;;;15.33;62.16;101758.81;5082777;28;1415;-75
2023/06/16 04:13:00;;;;;;;;;;;;;;;15.30;62.32;101754.69;5092965;28;1496;-77
2023/06/16 04:15:25;;;;;;;;;;;;;;;15.29;62.33;101762.66;5092650;28;1281;-75
2023/06/16 04:17:50;;;;;;;;;;;;;;;15.29;62.50;101760.88;5077467;28;1728;-76
2023/06/16 04:20:16;;;;;;;;;;;;;;;15.28;62.22;101759.22;5092418;28;1906;-76
2023/06/16 04:22:42;;;;;;;;;;;;;;;15.30;62.56;101764.31;5081627;28;1785;-75
2023/06/16 04:25:09;;;;;;;;;;;;;;;15.29;62.32;101768.72;5082721;28;1209;-75
2023/06/16 04:27:36;;;;;;;;;;;;;;;15.32;62.16;101768.47;5092542;28;1598;-75
2023/06/16 04:30:04;;;;;;;;;;;;;;;15.35;62.38;101765.56;5085621;28;1552;-74
2023/06/16 04:32:29;;;;;;;;;;;;;;;15.39;62.31;101773.97;5090171;28;1370;-76
2023/06/16 04:34:56;;;;;;;;;;;;;;;15.44;62.37;101786.66;5082032;28;1744;-75
2023/06/16 04:37:21;;;;;;;;;;;;;;;15.48;61.93;101777.56;5092465;28;1459;-76
2023/06/16 04:39:47;;;;;;;;;;;;;;;15.51;62.23;101777.31;5084772;28;1959;-76
2023/06/16 04:42:13;;;;;;;;;;;;;;;15.56;62.37;101777.75;5091002;28;1300;-76
2023/06/16 04:44:40;;;;;;;;;;;;;;;15.58;61.88;101773.19;5077312;28;1326;-76
2023/06/16 04:47:05;;;;;;;;;;;;;;;15.61;62.20;101772.94;5085785;28;1456;-76
2023/06/16 04:49:30;;;;;;;;;;;;;;;15.58;62.45;101776.63;5080421;28;1200;-75
2023/06/16 04:51:56;;;;;;;;;;;;;;;15.57;62.30;101782.00;5084263;28;1435;-77
2023/06/16 04:54:21;;;;;;;;;;;;;;;15.56;62.50;101778.56;5097762;28;1650;-76
2023/06/16 04:56:46;;;;;;;;;;;;;;;15.59;62.13;101774.84;5075829;28;2154;-76
2023/06/16 04:59:11;;;;;;;;;;;;;;;15.58;62.19;101778.41;5089559;28;1417;-76
2023/06/16 05:01:37;;;;;;;;;;;;;;;15.60;62.44;101785.19;5083307;28;1906;-76
2023/06/16 05:04:02;;;;;;;;;;;;;;;15.61;62.07;101789.44;5086973;28;1365;-76
2023/06/16 05:06:27;;;;;;;;;;;;;;;15.64;62.22;101777.91;5092229;28;1568;-76
2023/06/16 05:08:53;;;;;;;;;;;;;;;15.69;62.64;101778.34;5092743;28;1499;-76
2023/06/16 05:11:19;;;;;;;;;;;;;;;15.73;62.18;101777.13;5092537;28;1389;-75
2023/06/16 05:13:44;;;;;;;;;;;;;;;15.77;62.67;101782.88;5081696;28;1342;-74
2023/06/16 05:16:10;;;;;;;;;;;;;;;15.79;62.12;101780.97;5091692;28;1520;-76
2023/06/16 05:18:35;;;;;;;;;;;;;;;15.82;62.03;101781.50;5083107;28;1475;-76
2023/06/16 05:21:00;;;;;;;;;;;;;;;15.85;61.94;101781.25;5084676;28;1910;-77
2023/06/16 05:23:25;;;;;;;;;;;;;;;15.89;62.45;101782.66;5089652;28;1155;-76
2023/06/16 05:25:50;;;;;;;;;;;;;;;15.93;61.94;101775.34;5088226;28;1405;-77
2023/06/16 05:28:16;;;;;;;;;;;;;;;15.97;62.42;101783.75;5079166;28;1355;-76
2023/06/16 05:30:41;;;;;;;;;;;;;;;15.99;62.98;101785.25;5089465;28;1264;-76
2023/06/16 05:33:06;;;;;;;;;;;;;;;16.00;62.32;101789.53;5090765;28;1331;-76
2023/06/16 05:35:31;;;;;;;;;;;;;;;16.04;62.63;101784.84;5089126;28;1380;-76
2023/06/16 05:37:56;;;;;;;;;;;;;;;16.09;62.79;101793.94;5090374;28;1355;-77
2023/06/16 05:40:22;;;;;;;;;;;;;;;16.17;62.45;101801.09;5083726;28;1889;-76
2023/06/16 05:42:47;;;;;;;;;;;;;;;16.24;62.33;101796.97;5090763;28;1291;-76
2023/06/16 05:45:12;;;;;;;;;;;;;;;16.29;62.46;101794.78;5084881;28;1205;-76
2023/06/16 05:47:37;;;;;;;;;;;;;;;16.37;62.55;101800.13;5084409;28;1202;-76
2023/06/16 05:50:03;;;;;;;;;;;;;;;16.46;61.81;101794.06;5082715;28;1559;-76
2023/06/16 05:52:30;;;;;;;;;;;;;;;16.59;61.64;101800.81;5080743;28;1094;-76
2023/06/16 05:54:55;;;;;;;;;;;;;;;16.69;61.34;101799.00;5095575;28;1051;-76
2023/06/16 05:57:20;;;;;;;;;;;;;;;16.82;61.23;101801.34;5078319;28;1341;-76
2023/06/16 05:59:45;;;;;;;;;;;;;;;16.90;60.58;101807.50;5084312;28;1323;-76
2023/06/16 06:02:11;;;;;;;;;;;;;;;16.99;60.85;101803.22;5100258;28;1898;-76
2023/06/16 06:04:36;;;;;;;;;;;;;;;17.07;61.23;101805.13;5088177;28;948;-76
2023/06/16 06:07:01;;;;;;;;;;;;;;;17.09;60.30;101808.41;5086943;28;1510;-76
2023/06/16 06:09:26;;;;;;;;;;;;;;;17.16;60.23;101814.75;5080914;28;1566;-77
2023/06/16 06:11:52;;;;;;;;;;;;;;;17.24;59.41;101812.22;5087139;28;1193;-76
2023/06/16 06:14:18;;;;;;;;;;;;;;;17.30;59.40;101816.88;5088350;28;1237;-76
2023/06/16 06:16:43;;;;;;;;;;;;;;;17.37;60.06;101820.56;5087730;28;1506;-75
2023/06/16 06:19:08;;;;;;;;;;;;;;;17.45;59.52;101812.81;5085239;28;1256;-75
2023/06/16 06:21:35;;;;;;;;;;;;;;;17.57;59.79;101828.38;5088015;28;1906;-75
2023/06/16 06:24:00;;;;;;;;;;;;;;;17.69;59.36;101827.19;5090935;28;1238;-76
2023/06/16 06:26:26;;;;;;;;;;;;;;;17.80;58.53;101824.38;5090862;28;1754;-76
2023/06/16 06:28:51;;;;;;;;;;;;;;;17.92;58.44;101823.19;5085099;28;1263;-76
2023/06/16 06:31:16;;;;;;;;;;;;;;;18.01;58.06;101819.69;5080315;28;1726;-76
2023/06/16 06:33:41;;;;;;;;;;;;;;;18.13;58.26;101824.72;5084567;28;1349;-76
2023/06/16 06:36:06;;;;;;;;;;;;;;;18.22;58.01;101829.06;5087551;28;1404;-77
2023/06/16 06:38:32;;;;;;;;;;;;;;;18.30;56.79;101823.88;5082180;28;1350;-75
2023/06/16 06:40:57;;;;;;;;;;;;;;;18.36;55.49;101820.66;5088135;28;1964;-76
2023/06/16 06:43:22;;;;;;;;;;;;;;;18.42;55.65;101825.31;5085780;28;1248;-76
2023/06/16 06:45:48;;;;;;;;;;;;;;;18.47;55.80;101828.31;5094586;28;1205;-77
2023/06/16 06:48:13;;;;;;;;;;;;;;;18.52;56.11;101836.56;5088029;28;1277;-76
2023/06/16 06:50:38;;;;;;;;;;;;;;;18.62;56.41;101830.34;5077545;28;1273;-75
2023/06/16 06:53:03;;;;;;;;;;;;;;;18.74;55.86;101839.66;5073442;28;1551;-76
2023/06/16 06:55:29;;;;;;;;;;;;;;;18.82;55.11;101831.84;5092916;28;1145;-76
2023/06/16 06:57:54;;;;;;;;;;;;;;;18.92;55.03;101832.56;5083656;28;1641;-75
2023/06/16 07:00:19;;;;;;;;;;;;;;;19.00;53.93;101840.50;5098031;28;1949;-75
2023/06/16 07:02:45;;;;;;;;;;;;;;;19.09;54.87;101829.03;5084072;28;1507;-75
2023/06/16 07:05:10;;;;;;;;;;;;;;;19.21;54.52;101826.13;5080505;28;1251;-75
2023/06/16 07:07:35;;;;;;;;;;;;;;;19.28;54.21;101833.25;5089606;28;1245;-75
2023/06/16 07:10:00;;;;;;;;;;;;;;;19.34;53.78;101826.53;5084470;28;1383;-76
2023/06/16 07:12:26;;;;;;;;;;;;;;;19.42;53.54;101834.47;5080008;28;1374;-75
2023/06/16 07:14:51;;;;;;;;;;;;;;;19.50;53.43;101834.50;5079773;28;1448;-75
2023/06/16 07:17:16;;;;;;;;;;;;;;;19.60;53.40;101837.84;5089287;28;1277;-75
2023/06/16 07:19:41;;;;;;;;;;;;;;;19.74;52.65;101838.22;5074375;28;1366;-75
2023/06/16 07:22:07;;;;;;;;;;;;;;;19.83;52.73;101834.63;5082179;28;1893;-77
2023/06/16 07:24:32;;;;;;;;;;;;;;;19.93;52.28;101837.13;5089149;28;1298;-76
2023/06/16 07:26:59;;;;;;;;;;;;;;;19.99;51.85;101836.47;5085520;28;1230;-75
2023/06/16 07:29:25;;;;;;;;;;;;;;;20.06;51.49;101842.72;5080644;28;1312;-77
2023/06/16 07:31:50;;;;;;;;;;;;;;;20.15;51.76;101841.75;5082464;28;1350;-75
2023/06/16 07:34:15;;;;;;;;;;;;;;;20.25;50.60;101838.97;5083234;28;1209;-76
2023/06/16 07:36:40;;;;;;;;;;;;;;;20.32;50.37;101842.59;5082372;28;1198;-76
2023/06/16 07:39:06;;;;;;;;;;;;;;;20.38;50.24;101841.94;5089133;28;1728;-75
2023/06/16 07:41:32;;;;;;;;;;;;;;;20.46;49.44;101838.50;5081946;28;1889;-75
2023/06/16 07:43:57;;;;;;;;;;;;;;;20.53;50.25;101840.31;5083213;28;1250;-77
2023/06/16 07:46:22;;;;;;;;;;;;;;;20.68;49.93;101843.91;5086130;28;1548;-77
2023/06/16 07:48:47;;;;;;;;;;;;;;;20.83;50.00;101840.63;5079380;28;1721;-76
2023/06/16 07:51:13;;;;;;;;;;;;;;;20.92;49.19;101844.88;5079317;28;1277;-77
2023/06/16 07:53:40;;;;;;;;;;;;;;;21.01;46.77;101838.59;5071223;28;1576;-76
2023/06/16 07:56:06;;;;;;;;;;;;;;;21.07;47.35;101843.19;5074210;28;1329;-77
2023/06/16 07:58:31;;;;;;;;;;;;;;;21.14;46.93;101844.16;5080667;28;1461;-76
2023/06/16 08:00:57;;;;;;;;;;;;;;;21.23;45.55;101846.78;5092861;28;1898;-76
2023/06/16 08:03:22;;;;;;;;;;;;;;;21.30;47.08;101843.31;5096854;28;1371;-76
2023/06/16 08:05:47;;;;;;;;;;;;;;;21.37;46.94;101838.16;5081477;28;1293;-76
2023/06/16 08:08:12;;;;;;;;;;;;;;;21.46;46.42;101842.44;5094193;28;1336;-76
2023/06/16 08:10:37;;;;;;;;;;;;;;;21.56;46.26;101832.47;5086560;28;1463;-76
2023/06/16 08:13:03;;;;;;;;;;;;;;;21.74;47.01;101830.41;5087507;28;1249;-76
2023/06/16 08:15:28;;;;;;;;;;;;;;;21.75;46.20;101831.22;5085167;28;1504;-76
2023/06/16 08:17:53;;;;;;;;;;;;;;;21.84;45.88;101831.97;5090207;28;1463;-76
2023/06/16 08:20:18;;;;;;;;;;;;;;;21.89;46.58;101832.28;5085944;28;1905;-76
2023/06/16 08:22:44;;;;;;;;;;;;;;;21.95;45.43;101829.75;5082594;28;1428;-76
2023/06/16 08:25:09;;;;;;;;;;;;;;;22.00;45.92;101839.81;5085673;28;1446;-76
2023/06/16 08:27:34;;;;;;;;;;;;;;;22.09;44.95;101832.66;5077464;28;1289;-76
2023/06/16 08:30:00;;;;;;;;;;;;;;;22.14;41.26;101836.44;5077931;28;1148;-76
2023/06/16 08:32:25;;;;;;;;;;;;;;;22.19;42.49;101834.09;5084038;28;1185;-76
2023/06/16 08:34:50;;;;;;;;;;;;;;;22.30;42.67;101829.38;5080389;28;1559;-76
2023/06/16 08:37:16;;;;;;;;;;;;;;;22.39;42.06;101831.78;5085959;28;1272;-76
2023/06/16 08:39:42;;;;;;;;;;;;;;;22.50;42.42;101830.53;5086886;28;1725;-76
2023/06/16 08:42:07;;;;;;;;;;;;;;;22.61;41.41;101822.16;5098460;28;2035;-77
2023/06/16 08:44:33;;;;;;;;;;;;;;;22.70;41.08;101826.34;5094418;28;1204;-76
2023/06/16 08:46:58;;;;;;;;;;;;;;;22.77;42.68;101827.28;5089819;28;1411;-76
2023/06/16 08:49:24;;;;;;;;;;;;;;;22.83;42.46;101830.22;5087352;28;1590;-76
2023/06/16 08:51:50;;;;;;;;;;;;;;;22.93;42.35;101825.50;5076704;28;1409;-76
2023/06/16 08:54:18;;;;;;;;;;;;;;;23.01;40.77;101828.88;5087952;28;1076;-76
2023/06/16 08:56:43;;;;;;;;;;;;;;;23.05;40.91;101834.63;5088901;28;1665;-76
2023/06/16 08:59:10;;;;;;;;;;;;;;;23.16;40.29;101826.22;5095206;28;1469;-76
2023/06/16 09:01:39;;;;;;;;;;;;;;;23.21;36.77;101828.31;5086204;28;1973;-76
2023/06/16 09:04:08;;;;;;;;;;;;;;;23.24;35.67;101828.78;5086603;28;1202;-76
2023/06/16 09:06:34;;;;;;;;;;;;;;;23.30;36.81;101825.41;5083185;28;1410;-76
2023/06/16 09:08:59;;;;;;;;;;;;;;;23.36;37.11;101821.19;5085914;28;1265;-77
2023/06/16 09:11:24;;;;;;;;;;;;;;;23.45;37.93;101829.81;5076900;28;1900;-77
2023/06/16 09:13:51;;;;;;;;;;;;;;;23.56;37.08;101824.88;5089583;28;1357;-76
2023/06/16 09:16:17;;;;;;;;;;;;;;;23.66;38.37;101826.44;5095204;28;1261;-76
2023/06/16 09:18:44;;;;;;;;;;;;;;;23.65;36.31;101830.94;5087356;28;1234;-77
2023/06/16 09:21:11;;;;;;;;;;;;;;;23.67;38.38;101828.91;5084343;28;1890;-76
2023/06/16 09:23:37;;;;;;;;;;;;;;;23.83;38.56;101828.66;5088260;28;1558;-76
2023/06/16 09:26:12;;;;;;;;;;;;;;;24.01;37.20;101827.41;5088602;28;1308;-77
2023/06/16 09:28:37;;;;;;;;;;;;;;;23.93;36.38;101832.84;5093035;28;1282;-76
2023/06/16 09:31:11;;;;;;;;;;;;;;;23.93;36.54;101827.56;5084056;28;1375;-79
2023/06/16 09:33:37;;;;;;;;;;;;;;;23.94;34.55;101829.19;5081686;28;1333;-77
2023/06/16 09:36:02;;;;;;;;;;;;;;;23.92;35.05;101836.50;5090059;28;1090;-76
2023/06/16 09:38:31;;;;;;;;;;;;;;;23.91;35.49;101832.19;5086236;28;1375;-76
2023/06/16 09:41:06;;;;;;;;;;;;;;;24.03;36.99;101830.72;5091192;28;1897;-76
2023/06/16 09:43:31;;;;;;;;;;;;;;;24.17;36.35;101819.22;5085670;28;1307;-77
2023/06/16 09:45:57;;;;;;;;;;;;;;;24.25;36.50;101824.34;5083407;28;1334;-77
2023/06/16 09:48:25;;;;;;;;;;;;;;;24.32;35.66;101833.22;5089272;28;1401;-76
2023/06/16 09:50:51;;;;;;;;;;;;;;;24.45;36.47;101821.09;5086152;28;1506;-76
2023/06/16 09:53:19;;;;;;;;;;;;;;;24.61;36.26;101820.81;5092180;28;1163;-76
2023/06/16 09:55:44;;;;;;;;;;;;;;;24.75;35.50;101822.53;5086994;28;1220;-77
2023/06/16 09:58:09;;;;;;;;;;;;;;;24.67;35.08;101820.03;5071265;28;1548;-77
2023/06/16 10:00:35;;;;;;;;;;;;;;;24.66;34.00;101818.41;5083092;28;1902;-76
2023/06/16 10:03:01;;;;;;;;;;;;;;;24.63;35.17;101813.47;5099623;28;1235;-77
2023/06/16 10:05:28;;;;;;;;;;;;;;;24.66;35.21;101813.09;5084078;28;1402;-75
2023/06/16 10:07:57;;;;;;;;;;;;;;;24.66;35.42;101809.59;5085959;28;1234;-76
2023/06/16 10:10:25;;;;;;;;;;;;;;;24.69;34.63;101806.56;5089384;28;1343;-77
2023/06/16 10:12:50;;;;;;;;;;;;;;;24.80;35.56;101814.81;5083242;28;1288;-77
2023/06/16 10:15:18;;;;;;;;;;;;;;;24.82;35.29;101807.47;5088077;28;1811;-76
2023/06/16 10:17:45;;;;;;;;;;;;;;;24.95;34.80;101805.91;5082405;28;1297;-76
2023/06/16 10:20:12;;;;;;;;;;;;;;;25.17;34.46;101810.13;5085436;28;1885;-76
2023/06/16 10:22:38;;;;;;;;;;;;;;;25.13;35.16;101798.28;5091194;28;1301;-76
2023/06/16 10:25:03;;;;;;;;;;;;;;;25.28;34.74;101801.59;5086495;28;1480;-76
2023/06/16 10:27:29;;;;;;;;;;;;;;;25.39;33.83;101803.66;5092926;28;1285;-76
2023/06/16 10:29:55;;;;;;;;;;;;;;;25.48;33.35;101811.47;5089848;28;1334;-75
2023/06/16 10:32:21;;;;;;;;;;;;;;;25.51;34.14;101806.56;5085928;28;1428;-75
2023/06/16 10:34:51;;;;;;;;;;;;;;;25.59;34.35;101808.25;5083849;28;1507;-75
2023/06/16 10:37:18;;;;;;;;;;;;;;;25.67;33.08;101802.72;5087814;28;1143;-75
2023/06/16 10:39:44;;;;;;;;;;;;;;;25.80;33.45;101794.81;5086060;28;1334;-75
2023/06/16 10:42:13;;;;;;;;;;;;;;;25.93;33.06;101794.84;5093629;28;1971;-76
2023/06/16 10:44:38;;;;;;;;;;;;;;;26.08;33.33;101791.16;5088332;28;1397;-75
2023/06/16 10:47:09;;;;;;;;;;;;;;;26.09;33.35;101792.78;5093353;28;1287;-75
2023/06/16 10:49:44;;;;;;;;;;;;;;;26.10;33.40;101789.13;5084582;28;1311;-76
2023/06/16 10:52:09;;;;;;;;;;;;;;;26.18;32.14;101786.25;5086989;28;1209;-76
2023/06/16 10:54:44;;;;;;;;;;;;;;;26.21;32.38;101785.84;5088216;28;1346;-76
2023/06/16 10:57:10;;;;;;;;;;;;;;;26.34;32.55;101779.69;5085889;28;1497;-75
2023/06/16 10:59:55;;;;;;;;;;;;;;;26.35;31.65;101782.16;5080046;28;1379;-75
2023/06/16 11:02:25;;;;;;;;;;;;;;;26.37;32.26;101773.94;5089084;28;1977;-75
2023/06/16 11:05:08;;;;;;;;;;;;;;;26.40;30.81;101779.69;5084788;28;1626;-75
2023/06/16 11:07:38;;;;;;;;;;;;;;;26.43;31.75;101781.94;5081629;28;1315;-75
2023/06/16 11:10:03;;;;;;;;;;;;;;;26.44;31.57;101778.28;5089498;28;1202;-75
2023/06/16 11:12:28;;;;;;;;;;;;;;;26.40;30.87;101774.38;5084452;28;1000;-75
2023/06/16 11:14:55;;;;;;;;;;;;;;;26.41;30.88;101770.72;5077288;28;1453;-75
2023/06/16 11:17:20;;;;;;;;;;;;;;;26.51;31.05;101759.66;5084211;28;1322;-75
2023/06/16 11:19:50;;;;;;;;;;;;;;;26.66;30.74;101767.38;5085857;28;1248;-76
2023/06/16 11:22:15;;;;;;;;;;;;;;;26.61;30.83;101769.84;5081383;28;1918;-75
2023/06/16 11:24:40;;;;;;;;;;;;;;;26.69;30.32;101766.97;5080780;28;1312;-77
2023/06/16 11:27:06;;;;;;;;;;;;;;;26.61;29.96;101769.84;5086580;28;1015;-76
2023/06/16 11:29:32;;;;;;;;;;;;;;;26.59;29.54;101771.91;5089991;28;1140;-76
2023/06/16 11:31:59;;;;;;;;;;;;;;;26.52;29.54;101765.78;5075491;28;1121;-75
2023/06/16 11:34:24;;;;;;;;;;;;;;;26.50;29.24;101767.84;5074572;28;1660;-76
2023/06/16 11:36:50;;;;;;;;;;;;;;;26.53;29.66;101768.22;5080200;28;1619;-76
2023/06/16 11:39:15;;;;;;;;;;;;;;;26.66;29.38;101759.38;5089569;28;1261;-76
2023/06/16 11:41:40;;;;;;;;;;;;;;;26.74;28.26;101759.19;5086315;28;1963;-76
2023/06/16 11:44:10;;;;;;;;;;;;;;;26.84;29.25;101764.88;5074669;28;1649;-76
2023/06/16 11:46:35;;;;;;;;;;;;;;;27.05;28.12;101761.09;5075011;28;1509;-77
2023/06/16 11:49:01;;;;;;;;;;;;;;;26.93;26.53;101758.28;5085156;28;1256;-75
2023/06/16 11:51:27;;;;;;;;;;;;;;;26.93;27.88;101757.47;5073545;28;1341;-76
2023/06/16 11:53:53;;;;;;;;;;;;;;;26.93;28.92;101760.94;5078190;28;1361;-76
2023/06/16 11:56:20;;;;;;;;;;;;;;;27.18;28.28;101761.09;5077547;28;1428;-75
2023/06/16 11:58:48;;;;;;;;;;;;;;;27.43;28.25;101753.16;5072711;28;1410;-77
2023/06/16 12:01:14;;;;;;;;;;;;;;;27.58;28.51;101760.03;5083963;28;1890;-77
2023/06/16 12:03:40;;;;;;;;;;;;;;;27.53;27.21;101758.84;5085322;28;1332;-76
2023/06/16 12:06:06;;;;;;;;;;;;;;;27.43;26.56;101753.16;5090151;28;1415;-75
2023/06/16 12:08:35;;;;;;;;;;;;;;;27.34;26.76;101754.44;5084197;28;1745;-76
2023/06/16 12:11:00;;;;;;;;;;;;;;;27.39;27.89;101746.63;5089033;28;1538;-76
2023/06/16 12:13:25;;;;;;;;;;;;;;;27.60;27.81;101742.81;5088933;28;1625;-76
2023/06/16 12:15:50;;;;;;;;;;;;;;;27.87;27.76;101748.78;5090116;28;1393;-76
2023/06/16 12:18:16;;;;;;;;;;;;;;;27.82;26.65;101739.81;5092132;28;1334;-76
2023/06/16 12:20:41;;;;;;;;;;;;;;;27.80;26.74;101734.66;5086396;28;1963;-76
2023/06/16 12:23:11;;;;;;;;;;;;;;;27.71;27.83;101738.66;5081078;28;1379;-76
2023/06/16 12:25:36;;;;;;;;;;;;;;;27.71;27.66;101733.31;5086168;28;1524;-76
2023/06/16 12:28:03;;;;;;;;;;;;;;;27.60;27.00;101731.31;5093704;28;1378;-76
2023/06/16 12:30:31;;;;;;;;;;;;;;;27.51;26.76;101734.22;5089496;28;1297;-76
2023/06/16 12:32:57;;;;;;;;;;;;;;;27.48;27.52;101737.34;5077601;28;1452;-75
2023/06/16 12:35:23;;;;;;;;;;;;;;;27.60;27.26;101731.31;5081329;28;1433;-76
2023/06/16 12:37:48;;;;;;;;;;;;;;;27.56;26.44;101724.78;5082180;28;1420;-75
2023/06/16 12:40:15;;;;;;;;;;;;;;;27.51;27.05;101728.91;5083752;28;1985;-76
2023/06/16 12:42:40;;;;;;;;;;;;;;;27.59;28.15;101724.38;5083950;28;1464;-76